Merrillville, Indiana
Current Conditions -  °F | °C
As of 12:45 PM on Saturday 20 Dec 2014 (Local Time) from KGYY Reporting Station
Overcast Overcast  
Wind Chill: 30°   Ceiling: 2000
Heat Index: 36°   Visibility: 10mi
Dew Point: 21°   Wind: 7mph
Humidity: 56%   Direction: 220°SW
Pressure: 30.27"   Gusts: NA
Location:  41.49°N, 87.34°W
Report Text: KGYY 201845Z 22006KT 10SM BKN020 OVC070 02/M06 A3027
Loading
Personal Weather Stations






























Interactive Weather Map New forecast layout! Learn more

10-Day Weather Forecast

Advertisements
Track Severe Weather on mobile